Home   Weather   United Kingdom   Bath   Past weeks
Flag for United Kingdom

Past Weather in Bath, England, United Kingdom — Yesterday and Last 2 Weeks

Currently: 41 °F. Overcast. (Weather station: Bristol / Lulsgate, United Kingdom). See more current weather

Past Weather in Bath — Graph

°F

Bath Temperature Yesterday

Maximum temperature yesterday: 54 °F (at 1:50 pm)
Minimum temperature yesterday: 37 °F (at 11:50 pm)
Average temperature yesterday: 46 °F

High & Low Weather Summary for the Past Weeks

 TemperatureHumidityPressure
High66 °F (Apr 12, 3:20 pm)100% (Apr 7, 10:20 am)30.45 "Hg (Apr 7, 10:20 am)
Low34 °F (Apr 20, 3:50 am)38% (Apr 18, 3:20 pm)29.27 "Hg (Apr 9, 1:50 am)
Average49 °F82%30.10 "Hg
* Reported Apr 7 6:20 am — Apr 22 6:20 am, Bath. Weather by CustomWeather, © 2024

Note: Actual official high and low records may vary slightly from our data, if they occured in-between our weather recording intervals... More about our weather records

Bath Weather History for the Previous 24 Hours

Scroll right to see more
 ConditionsComfort  
Time TempWeatherWind HumidityBarometerVisibility
6:20 am
Mon, Apr 22
41 °FOvercast.3 mph81%30.42 "HgN/A
5:50 am41 °FOvercast.3 mph81%30.42 "HgN/A
5:20 am41 °FMostly cloudy.2 mph81%30.42 "HgN/A
4:50 am41 °FOvercast.2 mph76%30.42 "HgN/A
4:20 am41 °FOvercast.5 mph76%30.42 "HgN/A
3:50 am41 °FOvercast.3 mph76%30.42 "HgN/A
3:20 am41 °FPassing clouds.5 mph76%30.45 "HgN/A
2:20 am41 °FOvercast.7 mph76%30.45 "HgN/A
1:50 am41 °FPassing clouds.6 mph76%30.45 "HgN/A
1:20 am37 °FChilly.6 mph81%30.45 "HgN/A
12:50 am37 °FChilly.6 mph81%30.45 "HgN/A
12:20 am36 °FChilly.6 mph81%30.45 "HgN/A
11:50 pm
Sun, Apr 21
37 °FChilly.7 mph75%30.45 "HgN/A
11:20 pm39 °FChilly.6 mph75%30.45 "HgN/A
10:50 pm39 °FChilly.5 mph75%30.45 "HgN/A
10:20 pm39 °FChilly.5 mph75%30.45 "HgN/A
9:20 pm43 °FQuite cool.5 mph66%30.45 "HgN/A
8:50 pm45 °FQuite cool.7 mph61%30.42 "HgN/A
8:20 pm46 °FCool.7 mph53%30.42 "HgN/A
7:50 pm48 °FCool.8 mph50%30.42 "HgN/A
7:20 pm50 °FCool.13 mph47%30.42 "HgN/A
6:50 pm52 °FCool.13 mph44%30.42 "HgN/A
6:20 pm52 °FCool.13 mph44%30.42 "HgN/A
5:50 pm52 °FCool.10 mph44%30.42 "HgN/A
5:20 pm54 °FCool.14 mph41%30.42 "HgN/A
4:50 pm54 °FCool.14 mph41%30.42 "HgN/A
4:20 pm54 °FCool.13 mph44%30.42 "HgN/A
3:50 pm54 °FCool.14 mph41%30.42 "HgN/A
3:20 pm54 °FCool.12 mph41%30.42 "HgN/A
2:20 pm54 °FPassing clouds.12 mph47%30.42 "HgN/A
1:50 pm54 °FPassing clouds.15 mph47%30.42 "HgN/A
1:20 pm52 °FPassing clouds.14 mph50%30.42 "HgN/A
12:50 pm52 °FCool.15 mph50%30.42 "HgN/A
12:20 pm52 °FPartly sunny.15 mph54%30.42 "HgN/A
11:50 am48 °FBroken clouds.14 mph66%30.42 "HgN/A
11:20 am48 °FPartly sunny.15 mph66%30.42 "HgN/A
10:50 am46 °FMostly cloudy.12 mph76%30.42 "HgN/A
10:20 am46 °FMostly cloudy.12 mph76%30.42 "HgN/A
9:20 am45 °FOvercast.12 mph76%30.42 "HgN/A
8:50 am45 °FOvercast.12 mph81%30.42 "HgN/A
7:50 am43 °FScattered clouds.8 mph81%30.42 "HgN/A
7:20 am43 °FScattered clouds.7 mph81%30.42 "HgN/A
Weather by CustomWeather, © 2024

See weather overview